createdAt,value
2019-06-10T00:01:43.311Z,97081.67
2019-06-10T00:04:12.960Z,97080.16
2019-06-10T00:06:42.657Z,97075.91
2019-06-10T00:09:12.372Z,97080.11
2019-06-10T00:11:42.139Z,97075.81
2019-06-10T00:14:11.739Z,97077.45
2019-06-10T00:16:41.727Z,97075.75
2019-06-10T00:19:12.705Z,97081.33
2019-06-10T00:21:42.545Z,97078.69
2019-06-10T00:24:12.163Z,97069.41
2019-06-10T00:26:43.333Z,97071.34
2019-06-10T00:29:12.959Z,97076.67
2019-06-10T00:31:42.575Z,97065.41
2019-06-10T00:34:12.590Z,97066.45
2019-06-10T00:36:42.454Z,97073.98
2019-06-10T00:39:13.534Z,97066.44
2019-06-10T00:41:43.512Z,97063.41
2019-06-10T00:44:13.295Z,97076.81
2019-06-10T00:46:42.933Z,97071.77
2019-06-10T00:49:15.355Z,97066.09
2019-06-10T00:51:44.990Z,97065.40
2019-06-10T00:54:15.757Z,97062.93
2019-06-10T00:56:45.590Z,97059.50
2019-06-10T00:59:15.546Z,97058.19
2019-06-10T01:01:45.289Z,97055.73
2019-06-10T01:04:16.673Z,97052.57
2019-06-10T01:06:46.307Z,97047.55
2019-06-10T01:09:16.003Z,97045.38
2019-06-10T01:11:45.600Z,97046.75
2019-06-10T01:14:15.567Z,97042.23
2019-06-10T01:16:45.475Z,97040.33
2019-06-10T01:19:15.757Z,97037.93
2019-06-10T01:21:45.594Z,97037.98
2019-06-10T01:24:15.197Z,97025.09
2019-06-10T01:26:44.863Z,97015.19
2019-06-10T01:29:15.562Z,97015.91
2019-06-10T01:31:46.908Z,97005.98
2019-06-10T01:34:18.456Z,96999.98
2019-06-10T01:36:48.144Z,96999.91
2019-06-10T01:39:18.081Z,96990.83
2019-06-10T01:41:47.836Z,96986.12
2019-06-10T01:44:17.746Z,96977.80
2019-06-10T01:46:51.603Z,96974.54
2019-06-10T01:49:21.414Z,96974.64
2019-06-10T01:51:51.694Z,96972.41
2019-06-10T01:54:21.593Z,96969.53
2019-06-10T01:56:51.377Z,96971.47
2019-06-10T01:59:22.056Z,96965.83
2019-06-10T02:02:02.362Z,96967.80
2019-06-10T02:04:32.321Z,96964.53
2019-06-10T02:07:02.233Z,96955.84
2019-06-10T02:09:31.925Z,96953.29
2019-06-10T02:12:02.168Z,96949.94
2019-06-10T02:14:33.555Z,96949.48
2019-06-10T02:17:03.181Z,96951.81
2019-06-10T02:19:32.781Z,96955.64
2019-06-10T02:22:02.416Z,96958.34
2019-06-10T02:24:32.025Z,96959.08
2019-06-10T02:27:02.493Z,96958.20
2019-06-10T02:29:33.648Z,96952.28
2019-06-10T02:32:05.187Z,96949.57
2019-06-10T02:34:42.809Z,96947.30
2019-06-10T02:37:06.428Z,96952.22
2019-06-10T02:39:39.000Z,96954.16
2019-06-10T02:42:14.816Z,96953.93
2019-06-10T02:44:44.597Z,96951.75
2019-06-10T02:47:19.089Z,96944.70
2019-06-10T02:49:56.969Z,96940.55
2019-06-10T02:52:23.153Z,96935.20
2019-06-10T02:54:53.672Z,96932.27
2019-06-10T02:57:31.893Z,96934.17
2019-06-10T02:59:55.551Z,96942.72
2019-06-10T03:02:31.382Z,96938.09
2019-06-10T03:04:56.509Z,96944.31
2019-06-10T03:07:29.335Z,96945.92
2019-06-10T03:09:57.594Z,96946.23
2019-06-10T03:12:28.194Z,96944.00
2019-06-10T03:14:57.958Z,96949.86
2019-06-10T03:17:28.269Z,96944.55
2019-06-10T03:19:57.971Z,96949.18
2019-06-10T03:22:28.488Z,96955.37
2019-06-10T03:24:58.274Z,96952.96
2019-06-10T03:27:28.027Z,96943.28
2019-06-10T03:29:57.668Z,96950.44
2019-06-10T03:32:33.308Z,96958.80
2019-06-10T03:34:58.719Z,96958.88
2019-06-10T03:37:29.556Z,96964.94
2019-06-10T03:39:59.119Z,96959.87
2019-06-10T03:42:28.779Z,96955.34
2019-06-10T03:44:58.406Z,96963.05
2019-06-10T03:47:28.848Z,96956.73
2019-06-10T03:49:58.597Z,96960.28
2019-06-10T03:52:28.624Z,96951.22
2019-06-10T03:54:58.306Z,96950.16
2019-06-10T03:57:28.669Z,96945.67
2019-06-10T03:59:58.431Z,96939.67
2019-06-10T04:02:29.859Z,96943.27
2019-06-10T04:04:59.502Z,96943.41
2019-06-10T04:07:31.147Z,96944.52
2019-06-10T04:10:02.267Z,96943.22
2019-06-10T04:12:32.750Z,96944.87
2019-06-10T04:15:03.189Z,96948.34
2019-06-10T04:17:33.436Z,96941.59
2019-06-10T04:20:11.527Z,96947.06
2019-06-10T04:22:35.049Z,96950.14
2019-06-10T04:25:07.683Z,96947.32
2019-06-10T04:27:37.314Z,96950.28
2019-06-10T04:30:08.412Z,96946.63
2019-06-10T04:32:38.039Z,96945.63
2019-06-10T04:35:07.880Z,96942.39
2019-06-10T04:37:37.480Z,96937.77
2019-06-10T04:40:08.716Z,96942.55
2019-06-10T04:42:38.319Z,96940.86
2019-06-10T04:45:12.306Z,96937.73
2019-06-10T04:47:43.163Z,96934.90
2019-06-10T04:50:24.679Z,96932.28
2019-06-10T04:52:44.480Z,96928.44
2019-06-10T04:55:15.879Z,96922.45
2019-06-10T04:57:45.477Z,96914.29
2019-06-10T05:00:15.441Z,96914.45
2019-06-10T05:02:45.126Z,96917.41
2019-06-10T05:05:16.877Z,96916.33
2019-06-10T05:07:46.498Z,96922.52
2019-06-10T05:10:19.047Z,96916.41
2019-06-10T05:12:52.455Z,96916.19
2019-06-10T05:15:24.307Z,96912.58
2019-06-10T05:17:53.082Z,96913.17
2019-06-10T05:20:39.105Z,96908.69
2019-06-10T05:22:54.023Z,96916.09
2019-06-10T05:25:28.481Z,96911.31
2019-06-10T05:27:58.095Z,96911.03
2019-06-10T05:30:29.110Z,96909.64
2019-06-10T05:32:59.058Z,96905.85
2019-06-10T05:35:29.949Z,96907.27
2019-06-10T05:38:02.261Z,96899.63
2019-06-10T05:40:34.055Z,96905.74
2019-06-10T05:43:02.689Z,96904.91
2019-06-10T05:45:34.865Z,96902.17
2019-06-10T05:48:03.749Z,96903.00
2019-06-10T05:50:35.179Z,96898.86
2019-06-10T05:53:04.855Z,96896.10
2019-06-10T05:55:35.259Z,96894.72
2019-06-10T05:58:05.152Z,96898.74
2019-06-10T06:00:35.527Z,96891.98
2019-06-10T06:03:05.588Z,96892.00
2019-06-10T06:05:37.651Z,96890.58
2019-06-10T06:08:08.961Z,96890.24
2019-06-10T06:10:38.302Z,96889.47
2019-06-10T06:13:07.994Z,96885.83
2019-06-10T06:15:38.064Z,96883.78
2019-06-10T06:18:10.585Z,96884.48
2019-06-10T06:20:39.244Z,96873.31
2019-06-10T06:23:09.335Z,96872.55
2019-06-10T06:25:43.346Z,96868.36
2019-06-10T06:28:12.952Z,96873.18
2019-06-10T06:30:42.321Z,96871.80
2019-06-10T06:33:13.594Z,96872.20
2019-06-10T06:35:46.351Z,96862.06
2019-06-10T06:38:14.852Z,96862.80
2019-06-10T06:40:44.446Z,96857.91
2019-06-10T06:43:14.078Z,96853.45
2019-06-10T06:45:43.674Z,96853.42
2019-06-10T06:48:13.305Z,96854.95
2019-06-10T06:51:00.420Z,96852.16
2019-06-10T06:53:25.650Z,96854.88
2019-06-10T06:55:46.007Z,96853.70
2019-06-10T06:58:15.599Z,96852.08
2019-06-10T07:01:00.561Z,96851.56
2019-06-10T07:03:18.151Z,96854.03
2019-06-10T07:05:47.883Z,96850.89
2019-06-10T07:08:18.420Z,96849.36
2019-06-10T07:10:48.928Z,96849.60
2019-06-10T07:13:18.691Z,96841.12
2019-06-10T07:15:48.600Z,96842.55
2019-06-10T07:18:18.223Z,96833.42
2019-06-10T07:20:47.925Z,96829.60
2019-06-10T07:23:17.552Z,96825.41
2019-06-10T07:25:47.820Z,96822.94
2019-06-10T07:28:17.822Z,96824.51
2019-06-10T07:30:52.738Z,96824.91
2019-06-10T07:33:22.551Z,96817.06
2019-06-10T07:35:52.521Z,96813.13
2019-06-10T07:38:26.211Z,96807.24
2019-06-10T07:40:57.409Z,96806.22
2019-06-10T07:43:27.003Z,96804.64
2019-06-10T07:45:59.141Z,96805.59
2019-06-10T07:48:28.039Z,96797.87
2019-06-10T07:50:57.674Z,96799.39
2019-06-10T07:53:27.266Z,96797.88
2019-06-10T07:55:56.887Z,96789.28
2019-06-10T07:58:28.698Z,96795.20
2019-06-10T08:00:57.839Z,96787.50
2019-06-10T08:03:27.440Z,96788.48
2019-06-10T08:05:57.138Z,96788.98
2019-06-10T08:08:26.736Z,96792.80
2019-06-10T08:10:56.368Z,96788.20
2019-06-10T08:13:27.786Z,96786.41
2019-06-10T08:15:57.417Z,96789.71
2019-06-10T08:18:27.035Z,96794.73
2019-06-10T08:20:56.723Z,96797.95
2019-06-10T08:23:26.568Z,96799.74
2019-06-10T08:25:57.703Z,96799.06
2019-06-10T08:28:27.757Z,96807.58
2019-06-10T08:30:57.520Z,96797.45
2019-06-10T08:33:27.146Z,96794.75
2019-06-10T08:36:00.417Z,96790.66
2019-06-10T08:38:28.206Z,96792.73
2019-06-10T08:40:57.815Z,96783.68
2019-06-10T08:43:27.720Z,96786.55
2019-06-10T08:45:57.315Z,96790.70
2019-06-10T08:48:26.964Z,96788.89
2019-06-10T08:50:56.614Z,96783.55
2019-06-10T08:53:26.239Z,96781.27
2019-06-10T08:55:55.846Z,96779.70
2019-06-10T08:58:27.089Z,96774.36
2019-06-10T09:00:56.822Z,96775.71
2019-06-10T09:03:26.456Z,96769.22
2019-06-10T09:05:58.247Z,96771.45
2019-06-10T09:08:27.395Z,96766.69
2019-06-10T09:10:57.033Z,96772.71
2019-06-10T09:13:26.633Z,96774.58
2019-06-10T09:16:11.721Z,96767.00
2019-06-10T09:18:27.659Z,96757.59
2019-06-10T09:20:57.256Z,96763.63
2019-06-10T09:23:28.591Z,96772.02
2019-06-10T09:25:58.228Z,96768.72
2019-06-10T09:28:27.827Z,96770.81
2019-06-10T09:30:59.447Z,96770.78
2019-06-10T09:33:28.863Z,96769.23
2019-06-10T09:35:58.554Z,96765.20
2019-06-10T09:38:28.160Z,96755.19
2019-06-10T09:41:01.841Z,96757.91
2019-06-10T09:43:29.544Z,96754.42
2019-06-10T09:45:59.712Z,96756.23
2019-06-10T09:48:33.324Z,96763.00
2019-06-10T09:51:02.458Z,96755.97
2019-06-10T09:53:41.419Z,96760.18
2019-06-10T09:56:04.976Z,96755.52
2019-06-10T09:58:34.672Z,96755.50
2019-06-10T10:01:05.541Z,96750.94
2019-06-10T10:03:36.756Z,96753.57
2019-06-10T10:06:13.987Z,96747.34
2019-06-10T10:08:38.900Z,96746.55
2019-06-10T10:11:08.515Z,96751.09
2019-06-10T10:13:45.002Z,96746.30
2019-06-10T10:16:13.115Z,96748.47
2019-06-10T10:18:48.292Z,96745.99
2019-06-10T10:21:15.901Z,96741.02
2019-06-10T10:23:57.803Z,96748.06
2019-06-10T10:26:16.932Z,96741.20
2019-06-10T10:28:51.761Z,96738.31
2019-06-10T10:31:23.972Z,96734.98
2019-06-10T10:33:53.887Z,96729.95
2019-06-10T10:36:23.551Z,96727.88
2019-06-10T10:38:55.897Z,96722.84
2019-06-10T10:41:27.035Z,96720.05
2019-06-10T10:43:58.514Z,96713.91
2019-06-10T10:46:32.618Z,96710.75
2019-06-10T10:49:02.792Z,96702.66
2019-06-10T10:51:32.764Z,96706.01
2019-06-10T10:54:21.045Z,96701.44
2019-06-10T10:56:34.089Z,96701.52
2019-06-10T10:59:05.089Z,96704.12
2019-06-10T11:01:35.426Z,96699.44
2019-06-10T11:04:06.259Z,96695.58
2019-06-10T11:06:35.953Z,96697.09
2019-06-10T11:09:09.037Z,96689.73
2019-06-10T11:11:44.537Z,96690.52
2019-06-10T11:14:16.264Z,96687.47
2019-06-10T11:16:49.490Z,96682.44
2019-06-10T11:19:17.244Z,96685.48
2019-06-10T11:21:49.475Z,96682.85
2019-06-10T11:24:33.562Z,96677.11
2019-06-10T11:26:54.531Z,96678.72
2019-06-10T11:29:21.962Z,96669.05
2019-06-10T11:31:55.144Z,96665.64
2019-06-10T11:34:22.973Z,96659.16
2019-06-10T11:36:55.034Z,96656.64
2019-06-10T11:39:24.085Z,96646.03
2019-06-10T11:41:55.997Z,96650.45
2019-06-10T11:44:25.108Z,96643.37
2019-06-10T11:46:57.684Z,96640.74
2019-06-10T11:49:26.137Z,96633.84
2019-06-10T11:51:56.468Z,96637.07
2019-06-10T11:54:27.250Z,96634.90
2019-06-10T11:56:58.599Z,96628.06
2019-06-10T11:59:28.280Z,96624.37
2019-06-10T12:02:01.646Z,96627.61
2019-06-10T12:04:29.238Z,96624.37
2019-06-10T12:06:59.087Z,96618.77
2019-06-10T12:09:28.907Z,96609.27
2019-06-10T12:12:01.972Z,96611.16
2019-06-10T12:14:32.458Z,96610.16
2019-06-10T12:17:32.783Z,96608.18
2019-06-10T12:19:34.336Z,96609.30
2019-06-10T12:22:07.541Z,96607.25
2019-06-10T12:24:37.039Z,96592.23
2019-06-10T12:27:08.157Z,96592.97
2019-06-10T12:29:37.781Z,96593.75
2019-06-10T12:32:07.839Z,96584.32
2019-06-10T12:34:37.555Z,96577.73
2019-06-10T12:37:11.064Z,96576.82
2019-06-10T12:39:38.614Z,96571.78
2019-06-10T12:42:13.613Z,96569.78
2019-06-10T12:44:42.902Z,96569.19
2019-06-10T12:47:12.607Z,96563.62
2019-06-10T12:49:42.733Z,96560.35
2019-06-10T12:52:12.924Z,96553.45
2019-06-10T12:54:42.625Z,96554.02
2019-06-10T12:57:12.485Z,96548.09
2019-06-10T12:59:45.162Z,96542.42
2019-06-10T13:02:23.114Z,96536.81
2019-06-10T13:04:48.884Z,96532.16
2019-06-10T13:07:19.063Z,96532.64
2019-06-10T13:09:48.763Z,96526.48
2019-06-10T13:12:18.362Z,96526.59
2019-06-10T13:14:49.098Z,96516.03
2019-06-10T13:17:18.699Z,96516.77
2019-06-10T13:19:48.431Z,96514.61
2019-06-10T13:22:18.100Z,96512.45
2019-06-10T13:24:47.727Z,96507.12
2019-06-10T13:27:17.334Z,96498.42
2019-06-10T13:29:46.963Z,96500.45
2019-06-10T13:32:16.570Z,96493.45
2019-06-10T13:34:46.204Z,96495.65
2019-06-10T13:37:16.295Z,96493.00
2019-06-10T13:39:46.007Z,96487.17
2019-06-10T13:42:15.610Z,96478.31
2019-06-10T13:44:45.402Z,96473.03
2019-06-10T13:47:15.156Z,96472.28
2019-06-10T13:49:49.239Z,96460.16
2019-06-10T13:52:16.982Z,96461.77
2019-06-10T13:54:46.781Z,96458.34
2019-06-10T13:57:16.384Z,96452.41
2019-06-10T13:59:46.526Z,96449.63
2019-06-10T14:02:16.301Z,96449.92
2019-06-10T14:04:45.905Z,96434.42
2019-06-10T14:07:17.346Z,96439.80
2019-06-10T14:09:46.952Z,96436.02
2019-06-10T14:12:17.339Z,96437.05
2019-06-10T14:14:47.507Z,96440.45
2019-06-10T14:17:19.441Z,96429.19
2019-06-10T14:19:48.612Z,96432.21
2019-06-10T14:22:18.265Z,96432.00
2019-06-10T14:24:47.867Z,96429.89
2019-06-10T14:27:21.380Z,96435.33
2019-06-10T14:29:48.886Z,96438.98
2019-06-10T14:32:18.485Z,96435.99
2019-06-10T14:34:48.104Z,96426.44
2019-06-10T14:37:32.116Z,96426.16
2019-06-10T14:39:52.758Z,96435.02
2019-06-10T14:42:23.119Z,96435.23
2019-06-10T14:44:52.865Z,96428.16
2019-06-10T14:47:23.096Z,96428.99
2019-06-10T14:49:53.050Z,96420.98
2019-06-10T14:52:24.466Z,96416.00
2019-06-10T14:54:57.438Z,96411.26
2019-06-10T14:57:25.403Z,96410.95
2019-06-10T14:59:55.036Z,96405.34
2019-06-10T15:02:24.663Z,96413.30
2019-06-10T15:04:55.802Z,96417.69
2019-06-10T15:07:25.423Z,96410.71
2019-06-10T15:09:55.023Z,96400.74
2019-06-10T15:12:24.647Z,96397.95
2019-06-10T15:14:54.247Z,96392.81
2019-06-10T15:17:23.892Z,96393.72
2019-06-10T15:19:53.557Z,96392.44
2019-06-10T15:22:23.731Z,96389.16
2019-06-10T15:24:53.460Z,96394.19
2019-06-10T15:27:29.858Z,96387.80
2019-06-10T15:29:54.500Z,96393.34
2019-06-10T15:32:33.731Z,96391.42
2019-06-10T15:34:55.453Z,96381.39
2019-06-10T15:37:28.653Z,96376.11
2019-06-10T15:39:56.497Z,96381.56
2019-06-10T15:42:28.651Z,96376.75
2019-06-10T15:44:57.444Z,96375.55
2019-06-10T15:47:29.835Z,96373.91
2019-06-10T15:49:59.502Z,96376.94
2019-06-10T15:52:29.131Z,96374.59
2019-06-10T15:54:58.727Z,96370.43
2019-06-10T15:57:39.492Z,96372.19
2019-06-10T15:59:59.714Z,96372.05
2019-06-10T16:02:29.336Z,96368.86
2019-06-10T16:04:58.950Z,96377.30
2019-06-10T16:07:28.550Z,96377.12
2019-06-10T16:09:58.173Z,96368.94
2019-06-10T16:12:27.774Z,96371.06
2019-06-10T16:14:57.474Z,96366.13
2019-06-10T16:17:29.954Z,96364.20
2019-06-10T16:19:58.426Z,96356.91
2019-06-10T16:22:28.052Z,96363.62
2019-06-10T16:24:57.657Z,96362.48
2019-06-10T16:27:43.703Z,96357.95
2019-06-10T16:29:58.604Z,96360.06
2019-06-10T16:32:28.237Z,96364.44
2019-06-10T16:34:57.858Z,96360.47
2019-06-10T16:37:27.466Z,96355.94
2019-06-10T16:40:00.271Z,96345.05
2019-06-10T16:42:32.038Z,96354.51
2019-06-10T16:45:02.550Z,96353.16
2019-06-10T16:47:32.687Z,96357.70
2019-06-10T16:50:03.311Z,96357.05
2019-06-10T16:52:34.288Z,96361.80
2019-06-10T16:55:05.536Z,96360.34
2019-06-10T16:57:35.141Z,96361.09
2019-06-10T17:00:13.859Z,96368.92
2019-06-10T17:02:42.526Z,96371.20
2019-06-10T17:05:12.181Z,96372.09
2019-06-10T17:07:43.490Z,96371.63
2019-06-10T17:10:13.609Z,96380.42
2019-06-10T17:12:43.311Z,96384.45
2019-06-10T17:15:13.508Z,96382.42
2019-06-10T17:17:43.139Z,96385.20
2019-06-10T17:20:13.679Z,96390.44
2019-06-10T17:22:43.555Z,96386.22
2019-06-10T17:25:13.678Z,96385.64
2019-06-10T17:27:43.281Z,96385.40
2019-06-10T17:30:14.760Z,96392.66
2019-06-10T17:32:44.390Z,96398.16
2019-06-10T17:35:15.883Z,96412.83
2019-06-10T17:37:45.513Z,96411.52
2019-06-10T17:40:15.732Z,96410.16
2019-06-10T17:42:45.371Z,96406.09
2019-06-10T17:45:15.680Z,96416.77
2019-06-10T17:47:46.767Z,96411.28
2019-06-10T17:50:16.970Z,96408.27
2019-06-10T17:52:46.606Z,96413.36
2019-06-10T17:55:16.461Z,96414.48
2019-06-10T17:57:47.553Z,96407.38
2019-06-10T18:00:18.177Z,96404.88
2019-06-10T18:02:47.783Z,96410.45
2019-06-10T18:05:17.420Z,96407.03
2019-06-10T18:07:47.056Z,96410.67
2019-06-10T18:10:18.274Z,96403.55
2019-06-10T18:12:47.892Z,96408.38
2019-06-10T18:15:18.198Z,96415.11
2019-06-10T18:17:48.367Z,96422.02
2019-06-10T18:20:19.110Z,96406.38
2019-06-10T18:22:48.724Z,96400.73
2019-06-10T18:25:18.592Z,96409.63
2019-06-10T18:27:48.208Z,96407.83
2019-06-10T18:30:18.356Z,96415.35
2019-06-10T18:32:49.492Z,96408.13
2019-06-10T18:35:22.349Z,96410.31
2019-06-10T18:37:52.917Z,96409.91
2019-06-10T18:40:23.232Z,96412.15
2019-06-10T18:42:52.909Z,96411.04
2019-06-10T18:45:24.001Z,96410.22
2019-06-10T18:47:53.635Z,96413.88
2019-06-10T18:50:25.976Z,96413.98
2019-06-10T18:52:57.358Z,96415.14
2019-06-10T18:55:28.534Z,96420.15
2019-06-10T18:57:58.127Z,96415.11
2019-06-10T19:00:44.985Z,96412.27
2019-06-10T19:03:10.479Z,96412.16
2019-06-10T19:05:33.106Z,96412.09
2019-06-10T19:08:02.558Z,96412.55
2019-06-10T19:10:34.262Z,96411.84
2019-06-10T19:13:03.604Z,96411.02
2019-06-10T19:15:33.644Z,96417.70
2019-06-10T19:18:03.351Z,96412.83
2019-06-10T19:20:36.964Z,96410.22
2019-06-10T19:23:04.557Z,96411.81
2019-06-10T19:25:37.274Z,96403.70
2019-06-10T19:28:05.848Z,96402.87
2019-06-10T19:30:37.686Z,96396.64
2019-06-10T19:33:07.033Z,96402.27
2019-06-10T19:35:38.177Z,96407.78
2019-06-10T19:38:12.597Z,96408.98
2019-06-10T19:40:42.899Z,96413.70
2019-06-10T19:43:13.347Z,96412.59
2019-06-10T19:45:44.188Z,96400.61
2019-06-10T19:48:13.820Z,96405.08
2019-06-10T19:50:49.944Z,96399.84
2019-06-10T19:53:14.858Z,96405.67
2019-06-10T19:55:46.084Z,96415.48
2019-06-10T19:58:15.882Z,96427.81
2019-06-10T20:00:50.794Z,96448.08
2019-06-10T20:03:16.861Z,96462.85
2019-06-10T20:05:47.258Z,96474.54
2019-06-10T20:08:16.905Z,96467.46
2019-06-10T20:10:46.539Z,96455.63
2019-06-10T20:13:16.212Z,96458.31
2019-06-10T20:15:47.092Z,96470.91
2019-06-10T20:18:17.201Z,96478.28
2019-06-10T20:20:47.625Z,96479.61
2019-06-10T20:23:18.306Z,96491.67
2019-06-10T20:25:48.863Z,96486.78
2019-06-10T20:28:18.555Z,96491.47
2019-06-10T20:30:49.135Z,96481.30
2019-06-10T20:33:20.568Z,96486.41
2019-06-10T20:35:50.197Z,96483.61
2019-06-10T20:38:22.210Z,96482.44
2019-06-10T20:40:53.067Z,96481.30
2019-06-10T20:43:22.541Z,96480.19
2019-06-10T20:45:52.185Z,96481.66
2019-06-10T20:48:24.921Z,96480.90
2019-06-10T20:50:54.544Z,96484.98
2019-06-10T20:53:24.149Z,96485.59
2019-06-10T20:55:57.394Z,96487.27
2019-06-10T20:58:25.113Z,96493.57
2019-06-10T21:00:57.186Z,96498.77
2019-06-10T21:03:26.804Z,96499.83
2019-06-10T21:06:02.932Z,96501.23
2019-06-10T21:08:34.049Z,96497.36
2019-06-10T21:11:03.647Z,96492.81
2019-06-10T21:13:33.427Z,96493.33
2019-06-10T21:16:03.974Z,96494.47
2019-06-10T21:18:33.667Z,96493.16
2019-06-10T21:21:03.608Z,96493.74
2019-06-10T21:23:33.320Z,96497.24
2019-06-10T21:26:03.272Z,96503.55
2019-06-10T21:28:33.038Z,96500.27
2019-06-10T21:31:03.057Z,96504.63
2019-06-10T21:33:33.472Z,96496.20
2019-06-10T21:36:03.812Z,96500.04
2019-06-10T21:38:33.890Z,96492.12
2019-06-10T21:41:03.575Z,96505.75
2019-06-10T21:43:33.360Z,96504.67
2019-06-10T21:46:03.885Z,96507.11
2019-06-10T21:48:33.732Z,96515.31
2019-06-10T21:51:03.343Z,96507.69
2019-06-10T21:53:32.976Z,96510.43
2019-06-10T21:56:02.584Z,96513.69
2019-06-10T21:58:32.852Z,96506.85
2019-06-10T22:01:12.443Z,96506.09
2019-06-10T22:03:36.635Z,96502.80
2019-06-10T22:06:06.241Z,96500.05
2019-06-10T22:08:35.950Z,96501.97
2019-06-10T22:11:05.848Z,96507.11
2019-06-10T22:13:35.574Z,96505.47
2019-06-10T22:16:05.510Z,96498.67
2019-06-10T22:18:35.108Z,96499.24
2019-06-10T22:21:04.910Z,96509.02
2019-06-10T22:23:34.515Z,96497.32
2019-06-10T22:26:04.144Z,96498.05
2019-06-10T22:28:33.746Z,96502.67
2019-06-10T22:31:18.173Z,96493.40
2019-06-10T22:33:34.764Z,96494.45
2019-06-10T22:36:04.754Z,96491.38
2019-06-10T22:38:34.389Z,96492.75
2019-06-10T22:41:04.086Z,96502.53
2019-06-10T22:43:33.687Z,96506.33
2019-06-10T22:46:03.978Z,96501.49
2019-06-10T22:48:33.865Z,96503.19
2019-06-10T22:51:03.469Z,96499.11
2019-06-10T22:53:33.446Z,96498.30
2019-06-10T22:56:03.214Z,96492.56
2019-06-10T22:58:32.961Z,96487.64
2019-06-10T23:01:04.306Z,96490.62
2019-06-10T23:03:34.140Z,96483.81
2019-06-10T23:06:03.776Z,96476.70
2019-06-10T23:08:33.545Z,96466.85
2019-06-10T23:11:03.308Z,96470.91
2019-06-10T23:13:33.056Z,96464.08
2019-06-10T23:16:02.730Z,96464.89
2019-06-10T23:18:32.314Z,96461.40
2019-06-10T23:21:04.435Z,96462.75
2019-06-10T23:23:33.262Z,96456.53
2019-06-10T23:26:03.108Z,96455.72
2019-06-10T23:28:32.906Z,96453.27
2019-06-10T23:31:05.276Z,96453.26
2019-06-10T23:33:34.174Z,96448.68
2019-06-10T23:36:04.217Z,96441.85
2019-06-10T23:38:33.989Z,96443.98
2019-06-10T23:41:03.915Z,96437.90
2019-06-10T23:43:34.061Z,96445.19
2019-06-10T23:46:04.434Z,96438.84
2019-06-10T23:48:34.381Z,96441.05
2019-06-10T23:51:05.062Z,96436.45
2019-06-10T23:53:34.887Z,96442.41
2019-06-10T23:56:05.162Z,96433.70
2019-06-10T23:58:35.021Z,96435.67
